Time;durP1;ratioP1;P1;durP2;ratioP2;P2;SDS_P1;SDS_P2;PMS_P1;PMS_P2;Temp;Humidity;BMP_temperature;BMP_pressure;BME280_temperature;BME280_humidity;BME280_pressure;Samples;Min_cycle;Max_cycle;Signal;HPM_P1;HPM_P2
2022/09/18 00:02:08;;;;;;;8.83;2.33;;;;;;;15.23;59.86;98808.50;7005432;28;20262;-79
2022/09/18 00:05:29;;;;;;;3.63;2.20;;;;;;;15.43;59.06;98811.75;7004893;28;20269;-79
2022/09/18 00:08:52;;;;;;;3.20;2.20;;;;;;;15.28;58.74;98805.09;7004150;28;20226;-79
2022/09/18 00:12:13;;;;;;;9.47;2.60;;;;;;;15.17;59.25;98816.75;7004980;28;20305;-79
2022/09/18 00:15:36;;;;;;;5.77;2.10;;;;;;;15.26;58.86;98816.19;7003290;28;20286;-79
2022/09/18 00:18:58;;;;;;;8.03;2.43;;;;;;;14.87;59.69;98814.09;7004056;28;20680;-79
2022/09/18 00:22:20;;;;;;;7.50;2.50;;;;;;;14.70;60.68;98806.84;7004225;28;20419;-79
2022/09/18 00:25:41;;;;;;;4.07;2.20;;;;;;;14.67;60.39;98815.44;7004403;28;20292;-79
2022/09/18 00:29:04;;;;;;;7.27;2.27;;;;;;;14.98;59.56;98816.00;7003852;28;20278;-78
2022/09/18 00:32:26;;;;;;;5.47;2.53;;;;;;;15.19;58.71;98806.47;7004667;28;20341;-79
2022/09/18 00:35:48;;;;;;;6.67;2.40;;;;;;;15.29;58.56;98815.69;7005241;28;20642;-79
2022/09/18 00:39:10;;;;;;;2.60;1.93;;;;;;;14.80;59.49;98813.38;7004631;28;20288;-79
2022/09/18 00:42:32;;;;;;;6.53;2.67;;;;;;;14.81;59.81;98811.50;7003921;28;20274;-78
2022/09/18 00:45:55;;;;;;;7.67;2.50;;;;;;;15.16;58.91;98815.13;7003982;28;20679;-79
2022/09/18 00:49:19;;;;;;;6.37;2.47;;;;;;;15.18;58.87;98805.69;7003074;28;20293;-79
2022/09/18 00:52:47;;;;;;;3.40;1.90;;;;;;;15.11;59.06;98810.38;7008325;28;20217;-78
2022/09/18 00:56:09;;;;;;;7.37;2.93;;;;;;;14.96;59.28;98807.28;7003345;28;20316;-79
2022/09/18 00:59:33;;;;;;;5.07;2.60;;;;;;;15.07;59.39;98809.19;7002491;28;20269;-79
2022/09/18 01:02:54;;;;;;;5.00;2.20;;;;;;;15.40;58.45;98814.09;7003998;28;20687;-79
2022/09/18 01:06:19;;;;;;;4.57;2.77;;;;;;;15.02;58.70;98808.22;7003275;28;20226;-78
2022/09/18 01:09:47;;;;;;;7.40;2.73;;;;;;;14.95;58.91;98804.78;7002530;28;20243;-78
2022/09/18 01:13:15;;;;;;;5.23;2.43;;;;;;;14.69;59.53;98767.22;7002533;28;20197;-78
2022/09/18 01:16:40;;;;;;;6.23;2.20;;;;;;;15.06;58.68;98817.56;7002822;28;20240;-79
2022/09/18 01:20:23;;;;;;;5.23;2.30;;;;;;;15.07;58.80;98813.78;7001718;28;20363;-78
2022/09/18 01:24:00;;;;;;;6.33;2.47;;;;;;;14.69;59.96;98821.50;7002678;28;20678;-79
2022/09/18 01:27:30;;;;;;;3.77;2.23;;;;;;;15.04;58.84;98800.69;7002649;28;20303;-78
2022/09/18 01:30:55;;;;;;;8.27;2.20;;;;;;;14.99;59.02;98820.38;7002458;28;20190;-79
2022/09/18 01:34:22;;;;;;;5.53;2.20;;;;;;;15.03;58.80;98821.56;7002921;28;20635;-79
2022/09/18 01:37:47;;;;;;;9.97;2.73;;;;;;;14.76;58.98;98809.44;7002415;28;20267;-78
2022/09/18 01:41:12;;;;;;;6.60;2.43;;;;;;;14.78;59.18;98811.94;7002894;28;20278;-79
2022/09/18 01:44:34;;;;;;;4.47;2.50;;;;;;;14.71;58.57;98814.78;7003149;28;20292;-79
2022/09/18 01:47:59;;;;;;;7.40;2.10;;;;;;;14.55;59.06;98820.00;7001630;28;20232;-79
2022/09/18 01:51:23;;;;;;;3.50;2.23;;;;;;;14.64;58.52;98807.78;7002224;28;20374;-79
2022/09/18 01:54:48;;;;;;;6.50;2.50;;;;;;;14.74;57.82;98797.19;7001839;28;20815;-79
2022/09/18 01:58:12;;;;;;;5.23;2.30;;;;;;;15.05;56.65;98816.72;7001170;28;20754;-79
2022/09/18 02:01:36;;;;;;;7.47;2.43;;;;;;;14.81;57.40;98798.72;7002193;28;20339;-79
2022/09/18 02:05:00;;;;;;;5.57;2.17;;;;;;;15.09;56.48;98806.22;7001645;28;20667;-78
2022/09/18 02:08:25;;;;;;;5.80;1.97;;;;;;;14.99;56.77;98798.66;7001353;28;20359;-79
2022/09/18 02:11:50;;;;;;;4.43;2.20;;;;;;;15.02;56.54;98802.78;7002817;28;20198;-78
2022/09/18 02:15:14;;;;;;;6.10;2.20;;;;;;;15.11;56.33;98793.25;7006553;28;20229;-79
2022/09/18 02:18:38;;;;;;;5.53;2.10;;;;;;;15.00;55.41;98786.75;7009546;28;20270;-79
2022/09/18 02:22:04;;;;;;;4.53;2.27;;;;;;;15.29;54.45;98783.09;7001992;28;20238;-79
2022/09/18 02:25:30;;;;;;;4.67;2.03;;;;;;;15.24;54.68;98783.00;7001698;28;20213;-79
2022/09/18 02:28:52;;;;;;;2.90;2.10;;;;;;;14.74;55.94;98780.91;7000750;28;20320;-79
2022/09/18 02:32:14;;;;;;;7.70;2.37;;;;;;;14.38;57.67;98797.28;7000728;28;20654;-78
2022/09/18 02:35:40;;;;;;;3.83;1.93;;;;;;;14.88;56.40;98790.50;7001719;28;20569;-78
2022/09/18 02:39:09;;;;;;;3.83;2.10;;;;;;;15.29;56.00;98777.66;7001380;28;20225;-79
2022/09/18 02:42:43;;;;;;;4.03;1.90;;;;;;;14.73;57.68;98796.34;7002074;28;20751;-79
2022/09/18 02:46:08;;;;;;;2.50;1.83;;;;;;;14.62;57.73;98767.28;7001964;28;20226;-79
2022/09/18 02:49:38;;;;;;;7.43;2.00;;;;;;;14.88;57.76;98780.47;7001130;28;20208;-79
2022/09/18 02:53:04;;;;;;;4.27;2.37;;;;;;;15.05;57.66;98792.28;7002469;28;20627;-79
2022/09/18 02:56:31;;;;;;;3.33;2.20;;;;;;;14.59;58.72;98759.63;7005958;28;20374;-78
2022/09/18 02:59:55;;;;;;;5.63;2.80;;;;;;;14.59;59.88;98778.63;7000668;28;20327;-79
2022/09/18 03:03:17;;;;;;;5.67;2.00;;;;;;;14.85;58.70;98782.81;7001422;28;20698;-79
2022/09/18 03:06:39;;;;;;;6.97;2.30;;;;;;;14.86;58.60;98782.59;7000945;28;20222;-79
2022/09/18 03:10:00;;;;;;;4.10;2.00;;;;;;;14.80;58.29;98788.13;7000670;28;20273;-79
2022/09/18 03:13:23;;;;;;;4.23;1.90;;;;;;;14.59;60.02;98783.22;7000919;28;20588;-79
2022/09/18 03:16:45;;;;;;;3.80;2.10;;;;;;;14.54;60.51;98775.78;7000601;28;20290;-79
2022/09/18 03:20:09;;;;;;;3.70;1.90;;;;;;;14.54;60.61;98789.34;6999007;28;20216;-79
2022/09/18 03:23:30;;;;;;;2.60;2.20;;;;;;;15.13;59.34;98774.84;7000971;28;20273;-79
2022/09/18 03:26:52;;;;;;;3.50;2.27;;;;;;;15.10;59.08;98783.47;7000799;28;20271;-79
2022/09/18 03:30:15;;;;;;;3.30;2.20;;;;;;;14.77;60.21;98784.00;7000021;28;20259;-79
2022/09/18 03:33:37;;;;;;;3.37;2.00;;;;;;;14.48;61.19;98774.00;7000927;28;20278;-79
2022/09/18 03:36:59;;;;;;;4.93;2.10;;;;;;;14.63;60.26;98751.84;7000867;28;20598;-79
2022/09/18 03:40:20;;;;;;;5.10;2.10;;;;;;;14.93;60.12;98761.56;7000311;28;20712;-79
2022/09/18 03:43:42;;;;;;;5.17;1.83;;;;;;;15.00;59.54;98775.06;7002896;28;20206;-79
2022/09/18 03:47:05;;;;;;;3.03;1.90;;;;;;;15.23;59.20;98772.38;7005961;28;20312;-79
2022/09/18 03:50:26;;;;;;;5.17;1.97;;;;;;;14.70;60.36;98774.28;7005078;28;20209;-78
2022/09/18 03:53:49;;;;;;;4.30;2.10;;;;;;;15.07;59.58;98783.91;7005341;28;20213;-79
2022/09/18 03:57:11;;;;;;;3.87;1.80;;;;;;;15.17;59.24;98768.69;7005328;28;20257;-79
2022/09/18 04:00:32;;;;;;;3.37;2.00;;;;;;;14.61;61.17;98784.66;7004550;28;20262;-79
2022/09/18 04:03:55;;;;;;;4.03;2.07;;;;;;;14.80;61.04;98780.00;7004835;28;20210;-78
2022/09/18 04:07:17;;;;;;;2.67;1.70;;;;;;;14.78;60.86;98791.06;7004934;28;20314;-79
2022/09/18 04:10:39;;;;;;;2.30;1.80;;;;;;;14.89;60.61;98792.16;7004503;28;20202;-79
2022/09/18 04:14:00;;;;;;;5.27;1.90;;;;;;;14.96;61.14;98791.00;7004456;28;20254;-79
2022/09/18 04:17:22;;;;;;;4.13;2.00;;;;;;;15.02;60.61;98800.91;7004389;28;20267;-78
2022/09/18 04:20:45;;;;;;;3.23;2.00;;;;;;;15.36;59.87;98793.91;7014975;28;20607;-79
2022/09/18 04:24:07;;;;;;;4.00;1.73;;;;;;;15.37;59.82;98799.09;7032952;28;20652;-79
2022/09/18 04:27:28;;;;;;;6.27;2.30;;;;;;;15.11;60.69;98788.63;7031748;28;20256;-79
2022/09/18 04:30:50;;;;;;;5.63;2.90;;;;;;;14.62;61.75;98797.16;7031694;28;20238;-79
2022/09/18 04:34:11;;;;;;;2.07;1.87;;;;;;;14.63;62.40;98790.66;7032180;28;20210;-79
2022/09/18 04:37:34;;;;;;;3.83;1.90;;;;;;;14.50;62.36;98799.00;7031300;28;20811;-79
2022/09/18 04:40:56;;;;;;;2.40;2.20;;;;;;;14.96;61.67;98801.84;7031232;28;20209;-79
2022/09/18 04:44:17;;;;;;;2.27;2.07;;;;;;;15.08;60.76;98802.69;7003551;28;20577;-78
2022/09/18 04:47:39;;;;;;;4.00;1.80;;;;;;;14.79;61.09;98790.00;7002828;28;20226;-78
2022/09/18 04:51:01;;;;;;;2.50;2.00;;;;;;;14.93;60.79;98809.63;7002446;28;20238;-79
2022/09/18 04:54:24;;;;;;;4.50;2.10;;;;;;;14.76;61.47;98797.78;7001817;28;20202;-78
2022/09/18 04:57:45;;;;;;;4.47;2.13;;;;;;;15.10;60.61;98786.19;7029416;28;20233;-78
2022/09/18 05:01:07;;;;;;;3.43;2.00;;;;;;;15.14;60.30;98771.06;7032570;28;20350;-79
2022/09/18 05:04:28;;;;;;;3.90;2.00;;;;;;;14.87;60.06;98753.56;7032885;28;20807;-78
2022/09/18 05:07:50;;;;;;;2.10;1.90;;;;;;;14.98;60.35;98774.47;7031992;28;20312;-79
2022/09/18 05:11:13;;;;;;;3.13;2.20;;;;;;;14.84;60.97;98789.28;7032844;28;20432;-78
2022/09/18 05:14:35;;;;;;;4.23;2.60;;;;;;;14.82;61.02;98802.28;7033284;28;20339;-79
2022/09/18 05:18:00;;;;;;;6.13;2.40;;;;;;;14.85;61.52;98808.06;7032518;28;20311;-78
2022/09/18 05:21:22;;;;;;;2.33;2.10;;;;;;;15.11;60.89;98806.84;7031019;28;20224;-79
2022/09/18 05:24:43;;;;;;;2.27;1.90;;;;;;;14.87;60.95;98816.81;7032667;28;20187;-79
2022/09/18 05:28:06;;;;;;;4.03;2.10;;;;;;;14.99;60.55;98814.13;7033816;28;20752;-78
2022/09/18 05:31:28;;;;;;;3.73;2.07;;;;;;;15.16;59.89;98815.94;7015312;28;20273;-79
2022/09/18 05:34:49;;;;;;;2.60;1.80;;;;;;;15.34;59.53;98806.91;7007713;28;20287;-77
2022/09/18 05:38:11;;;;;;;4.23;2.17;;;;;;;14.97;60.89;98811.66;7030921;28;20217;-78
2022/09/18 05:41:35;;;;;;;2.33;1.90;;;;;;;15.01;60.50;98803.84;7030918;28;20198;-79
2022/09/18 05:44:58;;;;;;;2.00;1.90;;;;;;;15.12;61.22;98820.19;7032005;28;20195;-77
2022/09/18 05:48:19;;;;;;;2.60;2.20;;;;;;;15.16;61.18;98823.25;7030800;28;20741;-77
2022/09/18 05:51:41;;;;;;;2.73;2.20;;;;;;;15.27;61.02;98825.97;7031574;28;20231;-78
2022/09/18 05:55:02;;;;;;;1.93;1.83;;;;;;;15.29;60.08;98829.28;7031929;28;20314;-76
2022/09/18 05:58:24;;;;;;;2.50;1.80;;;;;;;15.65;59.23;98817.41;7031414;28;20310;-77
2022/09/18 06:01:47;;;;;;;2.07;1.87;;;;;;;15.55;59.37;98818.00;7031035;28;20230;-77
2022/09/18 06:05:09;;;;;;;3.87;2.10;;;;;;;15.56;59.73;98827.81;7031439;28;20649;-77
2022/09/18 06:08:31;;;;;;;2.57;2.20;;;;;;;15.55;59.58;98830.75;7030379;28;20227;-77
2022/09/18 06:11:52;;;;;;;4.10;2.13;;;;;;;15.58;59.90;98825.66;7030599;28;20209;-80
2022/09/18 06:15:14;;;;;;;6.13;2.70;;;;;;;15.62;60.44;98831.50;7030930;28;20224;-79
2022/09/18 06:18:37;;;;;;;3.17;2.23;;;;;;;15.83;59.92;98836.31;7030369;28;20363;-77
2022/09/18 06:21:59;;;;;;;4.50;2.03;;;;;;;15.66;59.87;98829.94;7030394;28;20267;-79
2022/09/18 06:25:20;;;;;;;3.23;1.93;;;;;;;15.68;60.12;98839.50;7027047;28;20291;-78
2022/09/18 06:28:46;;;;;;;4.40;2.43;;;;;;;15.77;59.51;98832.66;7024889;28;20229;-79
2022/09/18 06:32:08;;;;;;;2.73;1.83;;;;;;;15.13;59.81;98819.13;7027809;28;20189;-79
2022/09/18 06:35:32;;;;;;;5.07;2.30;;;;;;;15.31;59.95;98856.22;7028751;28;20216;-79
2022/09/18 06:38:53;;;;;;;2.53;2.23;;;;;;;15.03;61.04;98843.31;7020906;28;20292;-78
2022/09/18 06:42:16;;;;;;;3.07;2.17;;;;;;;14.82;61.88;98834.88;7029496;28;20654;-80
2022/09/18 06:45:38;;;;;;;2.50;2.30;;;;;;;14.52;63.53;98834.84;7030617;28;20249;-80
2022/09/18 06:48:59;;;;;;;2.20;2.00;;;;;;;15.07;61.78;98830.06;7030021;28;20311;-81
2022/09/18 06:52:22;;;;;;;2.80;2.30;;;;;;;14.97;62.17;98833.38;7029325;28;20194;-80
2022/09/18 06:55:44;;;;;;;3.40;2.23;;;;;;;14.62;64.16;98837.84;7030140;28;20341;-79
2022/09/18 06:59:05;;;;;;;4.33;2.03;;;;;;;14.81;62.87;98838.63;7028447;28;20484;-80
2022/09/18 07:02:27;;;;;;;5.33;2.40;;;;;;;14.96;62.27;98842.56;7029886;28;20260;-79
2022/09/18 07:05:48;;;;;;;3.17;1.97;;;;;;;15.21;62.30;98845.94;7029276;28;20245;-78
2022/09/18 07:09:11;;;;;;;2.87;2.10;;;;;;;14.74;62.64;98832.47;7031387;28;20382;-80
2022/09/18 07:12:33;;;;;;;3.77;2.10;;;;;;;14.98;62.23;98848.59;7029786;28;20243;-79
2022/09/18 07:15:54;;;;;;;3.77;2.23;;;;;;;14.96;61.91;98845.28;7029229;28;20710;-79
2022/09/18 07:19:16;;;;;;;3.50;2.43;;;;;;;15.04;62.43;98846.84;7032633;28;20300;-78
2022/09/18 07:22:38;;;;;;;3.90;2.30;;;;;;;14.89;62.51;98822.00;7008451;28;20689;-78
2022/09/18 07:26:01;;;;;;;4.00;2.33;;;;;;;15.06;62.17;98825.72;7011931;28;20228;-79
2022/09/18 07:29:23;;;;;;;4.63;2.50;;;;;;;14.91;61.46;98833.44;7034550;28;20292;-79
2022/09/18 07:32:45;;;;;;;2.53;2.33;;;;;;;15.19;61.70;98833.66;7035268;28;20226;-78
2022/09/18 07:36:06;;;;;;;2.90;2.53;;;;;;;15.33;61.29;98865.00;7034845;28;20228;-78
2022/09/18 07:39:28;;;;;;;3.73;2.20;;;;;;;14.86;62.17;98845.00;7032816;28;20240;-78
2022/09/18 07:42:51;;;;;;;4.13;2.50;;;;;;;15.57;61.19;98863.97;7034667;28;20244;-78
2022/09/18 07:46:12;;;;;;;2.40;2.20;;;;;;;15.57;61.10;98861.25;7034515;28;20228;-78
2022/09/18 07:49:36;;;;;;;4.50;2.40;;;;;;;15.50;61.81;98844.22;7033450;28;20265;-78
2022/09/18 07:53:00;;;;;;;7.17;2.80;;;;;;;15.87;60.42;98859.25;7034404;28;20598;-78
2022/09/18 07:56:22;;;;;;;3.30;2.70;;;;;;;15.97;60.49;98864.91;7033266;28;20235;-78
2022/09/18 07:59:45;;;;;;;2.57;2.13;;;;;;;15.84;59.01;98836.09;7033598;28;20227;-79
2022/09/18 08:03:10;;;;;;;3.73;2.10;;;;;;;15.79;60.08;98859.59;7034276;28;20299;-79
2022/09/18 08:06:32;;;;;;;5.57;2.63;;;;;;;15.91;59.15;98858.53;7033957;28;20221;-79
2022/09/18 08:09:54;;;;;;;3.67;2.50;;;;;;;16.12;59.69;98873.41;7033585;28;20255;-78
2022/09/18 08:13:15;;;;;;;5.47;2.20;;;;;;;15.92;59.95;98871.06;7034718;28;20354;-79
2022/09/18 08:16:38;;;;;;;4.00;2.30;;;;;;;15.55;60.73;98877.78;7033323;28;20226;-79
2022/09/18 08:19:59;;;;;;;2.40;2.00;;;;;;;16.02;60.13;98863.13;7032748;28;20283;-79
2022/09/18 08:23:21;;;;;;;3.93;2.20;;;;;;;16.11;59.84;98861.69;7033396;28;20263;-79
2022/09/18 08:26:42;;;;;;;3.67;2.00;;;;;;;16.25;58.69;98876.72;7033299;28;20318;-78
2022/09/18 08:30:06;;;;;;;5.07;2.20;;;;;;;15.95;59.64;98867.88;7032741;28;20288;-79
2022/09/18 08:33:28;;;;;;;2.27;2.00;;;;;;;15.86;59.65;98861.13;7033248;28;20291;-80
2022/09/18 08:36:50;;;;;;;2.70;2.10;;;;;;;15.69;59.45;98878.41;7033321;28;20264;-79
2022/09/18 08:40:13;;;;;;;3.97;2.00;;;;;;;16.19;57.90;98874.09;7031340;28;20205;-79
2022/09/18 08:43:46;;;;;;;2.33;2.00;;;;;;;16.13;58.55;98875.91;7030481;28;20259;-79
2022/09/18 08:47:11;;;;;;;2.30;1.90;;;;;;;16.20;57.88;98867.59;7032291;28;20247;-79
2022/09/18 08:50:36;;;;;;;4.20;1.90;;;;;;;16.10;58.96;98870.91;7032941;28;20666;-79
2022/09/18 08:54:05;;;;;;;2.90;1.90;;;;;;;15.46;57.96;98867.50;7033966;28;20285;-79
2022/09/18 08:57:29;;;;;;;4.33;2.30;;;;;;;16.07;56.89;98857.81;7034585;28;20292;-79
2022/09/18 09:00:53;;;;;;;2.13;1.87;;;;;;;15.76;58.14;98874.47;7040608;28;20205;-79
2022/09/18 09:04:17;;;;;;;3.70;1.93;;;;;;;16.24;56.80;98885.94;7042924;28;20295;-78
2022/09/18 09:08:25;;;;;;;2.00;1.90;;;;;;;16.22;56.80;98884.53;7046143;28;20380;-79
2022/09/18 09:11:52;;;;;;;4.27;2.00;;;;;;;15.73;57.53;98887.72;6974967;28;20213;-79
2022/09/18 09:15:25;;;;;;;2.00;1.90;;;;;;;16.02;57.72;98887.63;6983769;28;20346;-79
2022/09/18 09:18:57;;;;;;;4.50;2.70;;;;;;;16.25;56.77;98889.47;7032595;28;20234;-79
2022/09/18 09:22:20;;;;;;;4.63;3.07;;;;;;;16.32;55.32;98884.72;7032391;28;20338;-79
2022/09/18 09:25:50;;;;;;;2.73;2.53;;;;;;;16.03;56.71;98886.53;7033410;28;20216;-79
2022/09/18 09:29:15;;;;;;;3.93;2.20;;;;;;;15.93;55.99;98872.72;7032281;28;20197;-79
2022/09/18 09:32:40;;;;;;;4.70;2.40;;;;;;;16.07;55.70;98878.72;7033220;28;20338;-79
2022/09/18 09:36:05;;;;;;;3.17;2.70;;;;;;;16.02;56.61;98879.44;7032641;28;20247;-80
2022/09/18 09:39:29;;;;;;;6.47;2.70;;;;;;;16.35;55.99;98886.97;7037863;28;20228;-79
2022/09/18 09:42:54;;;;;;;3.40;2.50;;;;;;;16.51;55.05;98840.00;7031048;28;20726;-79
2022/09/18 09:46:23;;;;;;;6.83;3.00;;;;;;;16.74;54.69;98870.66;7030753;28;20722;-80
2022/09/18 09:49:51;;;;;;;4.63;2.77;;;;;;;16.53;54.98;98875.97;7032794;28;20248;-79
2022/09/18 09:53:13;;;;;;;9.50;2.70;;;;;;;16.54;55.62;98872.16;7031998;28;20200;-79
2022/09/18 09:56:39;;;;;;;3.10;2.87;;;;;;;16.88;54.64;98876.66;7030870;28;20231;-80
2022/09/18 10:00:09;;;;;;;3.77;2.10;;;;;;;16.90;54.18;98872.63;7030469;28;20674;-79
2022/09/18 10:03:41;;;;;;;2.40;2.20;;;;;;;16.67;54.33;98872.72;7030872;28;20213;-80
2022/09/18 10:07:10;;;;;;;5.77;3.07;;;;;;;16.96;53.82;98852.59;7030209;28;20323;-80
2022/09/18 10:10:38;;;;;;;2.07;1.93;;;;;;;16.52;54.52;98875.13;7029467;28;20281;-79
2022/09/18 10:14:02;;;;;;;4.80;2.17;;;;;;;16.71;54.08;98856.72;7030144;28;20293;-79
2022/09/18 10:17:26;;;;;;;3.47;2.10;;;;;;;16.58;54.99;98843.41;7030097;28;20225;-80
2022/09/18 10:20:50;;;;;;;6.90;2.40;;;;;;;17.04;54.08;98862.25;7029040;28;20279;-79
2022/09/18 10:24:18;;;;;;;6.23;2.60;;;;;;;17.42;52.95;98865.97;7030186;28;20272;-79
2022/09/18 10:27:39;;;;;;;5.77;3.30;;;;;;;17.27;52.90;98851.22;7029773;28;20247;-79
2022/09/18 10:31:02;;;;;;;4.70;2.40;;;;;;;17.06;53.42;98860.09;7030377;28;20289;-79
2022/09/18 10:34:34;;;;;;;3.63;3.00;;;;;;;16.73;54.39;98857.28;7030557;28;20203;-80
2022/09/18 10:37:56;;;;;;;5.10;2.30;;;;;;;17.28;52.36;98858.34;7029325;28;20314;-79
2022/09/18 10:41:26;;;;;;;3.53;2.30;;;;;;;17.85;50.53;98847.00;7030241;28;20685;-80
2022/09/18 10:44:53;;;;;;;4.20;2.73;;;;;;;17.84;50.66;98839.91;7028914;28;20184;-79
2022/09/18 10:48:16;;;;;;;4.30;2.20;;;;;;;18.02;50.29;98852.44;7028908;28;20588;-81
2022/09/18 10:51:39;;;;;;;3.50;2.67;;;;;;;17.91;50.86;98839.72;7030514;28;20553;-79
2022/09/18 10:55:11;;;;;;;5.00;2.43;;;;;;;18.31;49.73;98832.09;7035354;28;20724;-79
2022/09/18 10:58:33;;;;;;;2.63;2.20;;;;;;;18.54;49.76;98834.59;7034896;28;20232;-80
2022/09/18 11:01:56;;;;;;;6.43;3.20;;;;;;;19.11;47.82;98836.56;7035248;28;20199;-80
2022/09/18 11:05:19;;;;;;;3.50;2.40;;;;;;;18.80;47.48;98833.81;7007203;28;20272;-80
2022/09/18 11:08:44;;;;;;;4.73;2.57;;;;;;;19.09;45.94;98825.09;7005555;28;20228;-77
2022/09/18 11:12:13;;;;;;;5.93;2.50;;;;;;;18.87;44.83;98820.78;7017709;28;20200;-79
2022/09/18 11:15:36;;;;;;;3.20;1.90;;;;;;;19.08;44.15;98831.66;7034484;28;20192;-80
2022/09/18 11:19:06;;;;;;;3.00;1.80;;;;;;;19.55;43.55;98798.97;7033228;28;20276;-80
2022/09/18 11:22:34;;;;;;;3.63;1.80;;;;;;;18.97;43.55;98812.66;7033754;28;20274;-79
2022/09/18 11:26:28;;;;;;;3.07;2.10;;;;;;;18.95;43.87;98801.16;7024011;28;20213;-79
2022/09/18 11:29:50;;;;;;;4.43;2.37;;;;;;;19.30;42.37;98787.84;6906042;28;20216;-79
2022/09/18 11:33:23;;;;;;;3.43;2.00;;;;;;;18.57;43.34;98774.81;7028555;28;20327;-80
2022/09/18 11:36:48;;;;;;;3.10;2.23;;;;;;;18.97;42.27;98780.69;7035152;28;20806;-79
2022/09/18 11:40:17;;;;;;;3.00;2.60;;;;;;;19.18;42.69;98781.72;7031583;28;20197;-80
2022/09/18 11:43:41;;;;;;;2.10;1.40;;;;;;;19.17;41.30;98769.13;7016200;28;20283;-81
2022/09/18 11:47:32;;;;;;;2.00;1.40;;;;;;;19.70;40.42;98774.47;7019749;28;20776;-80
2022/09/18 11:50:55;;;;;;;3.47;1.43;;;;;;;19.65;39.49;98763.50;6984901;28;20245;-80
2022/09/18 11:54:25;;;;;;;1.60;1.17;;;;;;;20.08;37.48;98752.25;7034090;28;20204;-80
2022/09/18 11:57:49;;;;;;;2.50;1.60;;;;;;;20.39;37.77;98748.56;7034368;28;20232;-80
2022/09/18 12:01:20;;;;;;;1.40;1.30;;;;;;;20.33;37.59;98760.59;7023969;28;20206;-80
2022/09/18 12:04:46;;;;;;;3.43;2.10;;;;;;;20.50;36.49;98739.25;7031302;28;20227;-77
2022/09/18 12:08:16;;;;;;;4.33;2.90;;;;;;;20.38;38.13;98746.91;7033412;28;20758;-77
2022/09/18 12:11:41;;;;;;;3.83;1.93;;;;;;;20.07;38.31;98740.50;7017744;28;20245;-77
2022/09/18 12:15:06;;;;;;;3.77;2.60;;;;;;;19.88;38.56;98746.66;7033812;28;20243;-77
2022/09/18 12:18:31;;;;;;;5.83;2.63;;;;;;;19.72;38.97;98751.25;7033531;28;20669;-77
2022/09/18 12:21:57;;;;;;;2.43;1.80;;;;;;;20.01;39.12;98747.03;7033128;28;20274;-78
2022/09/18 12:25:19;;;;;;;2.47;1.80;;;;;;;20.07;38.20;98751.47;7033433;28;20224;-78
2022/09/18 12:28:46;;;;;;;4.13;3.33;;;;;;;20.46;36.83;98722.53;7033954;28;20315;-77
2022/09/18 12:32:21;;;;;;;2.23;1.50;;;;;;;20.29;36.51;98732.91;7033505;28;20330;-77
2022/09/18 12:35:53;;;;;;;2.97;1.70;;;;;;;20.75;35.62;98714.69;7032619;28;20204;-79
2022/09/18 12:39:43;;;;;;;3.37;1.93;;;;;;;20.57;35.75;98726.16;7032647;28;20298;-78
2022/09/18 12:43:27;;;;;;;1.40;1.30;;;;;;;19.79;37.35;98718.16;7023546;28;20257;-77
2022/09/18 12:47:00;;;;;;;3.10;1.60;;;;;;;20.23;37.83;98717.56;7033428;28;20625;-77
2022/09/18 12:50:36;;;;;;;2.70;1.50;;;;;;;20.47;36.89;98712.44;7033025;28;20350;-77
2022/09/18 12:54:17;;;;;;;2.43;1.40;;;;;;;20.54;35.28;98705.59;7033196;28;20623;-77
2022/09/18 12:57:47;;;;;;;1.70;1.60;;;;;;;20.08;36.43;98723.00;7032118;28;20231;-78
2022/09/18 13:01:26;;;;;;;4.23;2.03;;;;;;;20.04;36.76;98707.34;7033053;28;20270;-77
2022/09/18 13:04:49;;;;;;;4.20;1.90;;;;;;;20.07;36.58;98691.22;7033056;28;20200;-78
2022/09/18 13:08:14;;;;;;;5.30;2.03;;;;;;;19.88;36.92;98700.16;7031840;28;20369;-78
2022/09/18 13:11:40;;;;;;;5.37;1.50;;;;;;;19.90;37.12;98701.53;7032167;28;20247;-77
2022/09/18 13:15:05;;;;;;;4.27;1.50;;;;;;;19.79;36.60;98696.25;7031719;28;20216;-78
2022/09/18 13:18:32;;;;;;;1.83;1.30;;;;;;;19.76;36.18;98715.97;7029927;28;20239;-78
2022/09/18 13:21:54;;;;;;;2.20;1.20;;;;;;;18.84;37.80;98712.00;7032140;28;20196;-77
2022/09/18 13:25:24;;;;;;;5.73;4.10;;;;;;;19.46;36.72;98705.66;7032517;28;20209;-77
2022/09/18 13:28:49;;;;;;;1.60;1.50;;;;;;;19.67;37.35;98707.44;7031551;28;20298;-78
2022/09/18 13:32:10;;;;;;;3.60;1.70;;;;;;;19.64;36.66;98699.75;7031776;28;20754;-78
2022/09/18 13:35:34;;;;;;;1.77;1.67;;;;;;;19.43;36.45;98669.81;7032082;28;20201;-76
2022/09/18 13:38:58;;;;;;;1.87;1.23;;;;;;;19.72;37.24;98701.16;7031623;28;20229;-78
2022/09/18 13:42:30;;;;;;;3.07;1.50;;;;;;;18.98;37.07;98659.38;7031751;28;20688;-77
2022/09/18 13:45:54;;;;;;;2.07;1.60;;;;;;;18.80;38.64;98699.97;7031112;28;20265;-78
2022/09/18 13:49:20;;;;;;;1.77;1.30;;;;;;;19.15;37.86;98675.63;7031103;28;20188;-76
2022/09/18 13:52:42;;;;;;;3.97;1.93;;;;;;;19.02;37.83;98651.47;7031113;28;20295;-78
2022/09/18 13:56:04;;;;;;;4.27;1.60;;;;;;;19.64;37.85;98685.25;7030786;28;20205;-77
2022/09/18 13:59:44;;;;;;;2.87;1.30;;;;;;;18.65;38.45;98687.00;7017405;28;20218;-76
2022/09/18 14:03:38;;;;;;;1.93;1.50;;;;;;;18.98;37.79;98688.63;7004363;28;20189;-77
2022/09/18 14:07:00;;;;;;;7.73;3.93;;;;;;;19.60;36.56;98682.25;6990528;28;20354;-77
2022/09/18 14:10:27;;;;;;;5.90;3.10;;;;;;;19.50;36.89;98681.34;7003647;28;20212;-77
2022/09/18 14:13:52;;;;;;;2.23;1.80;;;;;;;18.85;37.46;98676.22;7016698;28;20300;-79
2022/09/18 14:17:15;;;;;;;3.70;2.40;;;;;;;18.92;38.13;98673.28;7028919;28;20247;-78
2022/09/18 14:20:38;;;;;;;2.23;1.50;;;;;;;18.89;38.17;98676.53;7013806;28;20687;-79
2022/09/18 14:24:06;;;;;;;2.10;1.53;;;;;;;19.08;38.09;98678.59;7020838;28;20288;-80
2022/09/18 14:27:37;;;;;;;1.70;1.40;;;;;;;18.98;39.05;98677.72;7027488;28;20215;-79
2022/09/18 14:31:15;;;;;;;4.37;1.67;;;;;;;18.73;38.80;98661.94;7002229;28;20249;-79
2022/09/18 14:34:39;;;;;;;1.50;1.40;;;;;;;18.91;38.82;98674.34;7023453;28;20281;-80
2022/09/18 14:38:02;;;;;;;4.40;1.73;;;;;;;18.99;38.46;98668.41;7029238;28;20260;-79
2022/09/18 14:41:25;;;;;;;1.70;1.40;;;;;;;18.98;38.44;98664.84;7029853;28;20293;-79
2022/09/18 14:44:48;;;;;;;3.40;1.60;;;;;;;18.54;38.60;98635.25;7029368;28;20295;-80
2022/09/18 14:48:20;;;;;;;4.57;1.70;;;;;;;18.61;38.81;98633.13;7027579;28;20225;-80
2022/09/18 14:51:45;;;;;;;3.10;1.37;;;;;;;19.12;38.61;98657.03;7007872;28;20213;-80
2022/09/18 14:55:13;;;;;;;1.97;1.47;;;;;;;19.23;38.64;98659.56;7001126;28;20223;-79
2022/09/18 14:58:36;;;;;;;2.40;1.40;;;;;;;18.64;38.57;98644.34;7010534;28;20240;-79
2022/09/18 15:02:12;;;;;;;3.57;1.90;;;;;;;18.82;37.85;98634.97;7010869;28;20279;-79
2022/09/18 15:05:34;;;;;;;4.90;1.43;;;;;;;18.66;38.90;98624.97;7003472;28;20292;-79
2022/09/18 15:08:57;;;;;;;1.77;1.60;;;;;;;18.61;38.99;98627.66;7029886;28;20292;-80
2022/09/18 15:12:24;;;;;;;2.73;1.50;;;;;;;19.01;38.32;98622.50;7019947;28;20215;-79
2022/09/18 15:15:46;;;;;;;2.33;1.70;;;;;;;18.82;39.18;98632.22;7030961;28;20196;-79
2022/09/18 15:19:16;;;;;;;2.40;1.53;;;;;;;19.04;38.71;98611.88;7030883;28;20261;-78
2022/09/18 15:22:38;;;;;;;6.77;1.57;;;;;;;19.15;38.71;98626.41;7029436;28;20249;-80
2022/09/18 15:26:03;;;;;;;2.77;1.70;;;;;;;18.87;39.34;98621.34;7029445;28;20205;-80
2022/09/18 15:29:29;;;;;;;1.50;1.40;;;;;;;18.89;39.14;98620.00;7029453;28;20203;-79
2022/09/18 15:32:55;;;;;;;1.60;1.40;;;;;;;18.47;39.28;98619.13;7029586;28;20192;-80
2022/09/18 15:36:26;;;;;;;1.70;1.50;;;;;;;18.90;38.03;98626.25;7029287;28;20311;-80
2022/09/18 15:39:51;;;;;;;3.30;1.70;;;;;;;18.64;38.52;98616.25;7031480;28;20208;-80
2022/09/18 15:43:39;;;;;;;2.90;1.70;;;;;;;18.49;38.90;98625.13;7034339;28;20184;-80
2022/09/18 15:47:29;;;;;;;3.57;1.80;;;;;;;18.43;39.05;98620.72;7035231;28;20228;-80
2022/09/18 15:51:06;;;;;;;34.67;26.00;;;;;;;18.25;38.84;98623.78;7034290;28;20203;-79
2022/09/18 15:54:28;;;;;;;6.70;5.10;;;;;;;18.49;38.41;98629.75;7034585;28;20283;-79
2022/09/18 15:57:50;;;;;;;6.00;5.43;;;;;;;18.39;39.02;98610.56;7033654;28;20273;-80
2022/09/18 16:01:17;;;;;;;2.50;2.30;;;;;;;18.92;38.26;98627.66;7033484;28;20349;-80
2022/09/18 16:04:40;;;;;;;3.17;1.90;;;;;;;18.79;38.81;98608.16;7025692;28;20336;-79
2022/09/18 16:08:04;;;;;;;5.60;2.03;;;;;;;18.72;39.08;98605.66;7040921;28;20704;-80